Time;durP1;ratioP1;P1;durP2;ratioP2;P2;SDS_P1;SDS_P2;PMS_P1;PMS_P2;Temp;Humidity;BMP_temperature;BMP_pressure;BME280_temperature;BME280_humidity;BME280_pressure;Samples;Min_cycle;Max_cycle;Signal;HPM_P1;HPM_P2
2022/12/11 00:01:13;;;;;;;0.50;0.50;;;15.90;70.50;;;;;;4975455;28;20408;-74
2022/12/11 00:03:39;;;;;;;0.45;0.40;;;15.90;70.40;;;;;;4992959;28;20058;-74
2022/12/11 00:06:08;;;;;;;0.77;0.45;;;15.90;70.40;;;;;;4975366;28;20050;-74
2022/12/11 00:08:34;;;;;;;0.60;0.60;;;15.90;70.40;;;;;;4992992;28;20138;-74
2022/12/11 00:11:00;;;;;;;1.58;0.60;;;15.90;70.40;;;;;;4992869;28;20109;-74
2022/12/11 00:13:25;;;;;;;1.27;0.70;;;15.90;70.50;;;;;;4975451;28;20030;-74
2022/12/11 00:15:51;;;;;;;1.25;0.52;;;15.90;70.50;;;;;;4992719;28;20034;-75
2022/12/11 00:18:17;;;;;;;0.85;0.60;;;15.90;70.50;;;;;;4994873;28;20026;-74
2022/12/11 00:20:42;;;;;;;1.48;0.68;;;15.90;70.50;;;;;;4996548;28;20029;-74
2022/12/11 00:23:09;;;;;;;0.50;0.50;;;15.90;70.50;;;;;;4996731;28;20030;-74
2022/12/11 00:25:39;;;;;;;0.77;0.60;;;15.90;70.50;;;;;;4996562;28;20511;-74
2022/12/11 00:28:05;;;;;;;0.60;0.60;;;15.90;70.50;;;;;;4996537;28;20031;-74
2022/12/11 00:30:30;;;;;;;0.52;0.50;;;15.90;70.50;;;;;;4978958;28;20504;-74
2022/12/11 00:32:56;;;;;;;2.92;0.50;;;15.90;70.40;;;;;;4996188;28;20551;-74
2022/12/11 00:35:22;;;;;;;1.05;0.50;;;15.90;70.40;;;;;;4996264;28;20101;-74
2022/12/11 00:37:47;;;;;;;0.70;0.50;;;15.90;70.40;;;;;;4996594;28;20029;-74
2022/12/11 00:40:13;;;;;;;0.75;0.50;;;15.90;70.50;;;;;;4996554;28;20023;-74
2022/12/11 00:42:38;;;;;;;0.43;0.43;;;15.90;70.50;;;;;;4996252;28;20045;-74
2022/12/11 00:45:04;;;;;;;0.60;0.50;;;16.00;70.50;;;;;;4996187;28;20405;-74
2022/12/11 00:47:30;;;;;;;0.43;0.43;;;15.90;70.50;;;;;;4996223;28;20485;-74
2022/12/11 00:49:56;;;;;;;0.60;0.50;;;15.90;70.60;;;;;;4979017;28;20504;-74
2022/12/11 00:52:21;;;;;;;0.80;0.60;;;16.00;70.60;;;;;;4996062;28;20501;-74
2022/12/11 00:54:47;;;;;;;0.43;0.40;;;15.90;70.70;;;;;;4995995;28;20062;-74
2022/12/11 00:57:12;;;;;;;0.50;0.40;;;16.00;70.70;;;;;;4996060;28;20057;-74
2022/12/11 00:59:38;;;;;;;1.60;0.60;;;15.90;70.60;;;;;;4995789;28;20053;-74
2022/12/11 01:02:04;;;;;;;0.85;0.52;;;16.00;70.70;;;;;;4995943;28;20085;-74
2022/12/11 01:04:29;;;;;;;0.55;0.50;;;16.00;70.70;;;;;;4995996;28;20404;-74
2022/12/11 01:06:55;;;;;;;1.52;0.63;;;16.00;70.70;;;;;;4995536;28;20034;-74
2022/12/11 01:12:05;;;;;;;0.80;0.43;;;16.00;70.70;;;;;;4995503;28;20495;-74
2022/12/11 01:14:30;;;;;;;0.40;0.40;;;16.00;70.70;;;;;;4978343;28;20101;-74
2022/12/11 01:16:56;;;;;;;0.90;0.50;;;16.00;70.70;;;;;;4995648;28;20026;-73
2022/12/11 01:19:22;;;;;;;0.43;0.40;;;16.00;70.70;;;;;;4978135;28;20033;-74
2022/12/11 01:21:47;;;;;;;0.38;0.38;;;16.00;70.70;;;;;;4995293;28;20022;-74
2022/12/11 01:24:13;;;;;;;1.77;0.60;;;16.00;70.90;;;;;;4978231;28;20430;-74
2022/12/11 01:26:38;;;;;;;0.43;0.43;;;16.00;71.00;;;;;;4995245;28;20486;-74
2022/12/11 01:29:04;;;;;;;0.50;0.50;;;16.00;71.00;;;;;;4995171;28;20509;-74
2022/12/11 01:31:30;;;;;;;1.02;0.50;;;16.00;71.10;;;;;;4995351;28;20412;-74
2022/12/11 01:33:55;;;;;;;0.73;0.50;;;16.00;71.20;;;;;;4977962;28;20515;-73
2022/12/11 01:36:22;;;;;;;0.98;0.60;;;16.00;71.20;;;;;;4978252;28;20038;-74
2022/12/11 01:38:48;;;;;;;0.50;0.50;;;16.00;71.20;;;;;;4995153;28;20027;-73
2022/12/11 01:41:14;;;;;;;0.52;0.47;;;16.00;71.20;;;;;;4995199;28;20080;-74
2022/12/11 01:44:05;;;;;;;0.50;0.43;;;16.00;71.20;;;;;;4995330;28;20029;-73
2022/12/11 01:46:32;;;;;;;0.47;0.40;;;16.00;71.20;;;;;;4995032;28;20113;-73
2022/12/11 01:48:59;;;;;;;0.50;0.50;;;16.00;71.20;;;;;;4977819;28;20057;-73
2022/12/11 01:51:25;;;;;;;0.50;0.50;;;16.00;71.20;;;;;;4977616;28;20479;-73
2022/12/11 01:53:55;;;;;;;0.60;0.60;;;16.00;71.20;;;;;;4977806;28;20045;-73
2022/12/11 01:56:21;;;;;;;1.17;0.60;;;16.00;71.20;;;;;;4977844;28;20018;-74
2022/12/11 01:58:50;;;;;;;0.75;0.57;;;16.00;71.20;;;;;;4977470;28;20049;-74
2022/12/11 02:01:41;;;;;;;0.50;0.50;;;16.00;71.20;;;;;;4977625;28;20034;-74
2022/12/11 02:04:07;;;;;;;0.65;0.45;;;16.00;71.20;;;;;;4977775;28;20050;-74
2022/12/11 02:06:36;;;;;;;0.40;0.40;;;16.00;71.30;;;;;;4977341;28;20401;-74
2022/12/11 02:09:06;;;;;;;0.38;0.38;;;16.00;71.30;;;;;;4956745;28;20043;-74
2022/12/11 02:12:05;;;;;;;0.65;0.40;;;16.00;71.30;;;;;;4939067;29;20482;-74
2022/12/11 02:15:01;;;;;;;2.15;0.40;;;16.00;71.20;;;;;;4951181;29;20126;-74
2022/12/11 02:17:57;;;;;;;1.63;0.40;;;16.10;71.30;;;;;;4956021;29;20097;-74
2022/12/11 02:20:25;;;;;;;1.00;0.40;;;16.10;71.20;;;;;;4955713;29;20027;-73
2022/12/11 02:23:15;;;;;;;0.35;0.35;;;16.00;71.10;;;;;;4954372;29;20035;-73
2022/12/11 02:26:02;;;;;;;2.45;0.65;;;16.10;71.20;;;;;;4955516;29;20027;-73
2022/12/11 02:28:48;;;;;;;0.77;0.40;;;16.00;71.20;;;;;;4955217;29;20024;-74
2022/12/11 02:31:21;;;;;;;3.42;0.40;;;16.00;71.20;;;;;;4954526;29;20478;-73
2022/12/11 02:34:07;;;;;;;0.68;0.43;;;16.10;71.30;;;;;;4939157;29;20033;-73
2022/12/11 02:36:35;;;;;;;4.53;0.50;;;16.10;71.20;;;;;;4954409;29;20047;-73
2022/12/11 02:39:01;;;;;;;0.35;0.35;;;16.10;71.20;;;;;;4938573;29;20102;-73
2022/12/11 02:41:27;;;;;;;1.20;0.30;;;16.10;71.20;;;;;;4937551;29;20098;-73
2022/12/11 02:43:52;;;;;;;1.65;0.40;;;16.00;71.20;;;;;;4954178;29;20036;-74
2022/12/11 02:46:18;;;;;;;0.50;0.50;;;16.00;71.20;;;;;;4954229;29;20027;-74
2022/12/11 02:48:44;;;;;;;0.77;0.50;;;16.10;71.20;;;;;;4938133;29;20390;-74
2022/12/11 02:51:10;;;;;;;1.83;0.43;;;16.10;71.20;;;;;;4938202;29;20032;-74
2022/12/11 02:53:37;;;;;;;2.53;0.55;;;16.00;71.20;;;;;;4953425;29;20071;-74
2022/12/11 02:56:18;;;;;;;0.70;0.70;;;16.10;71.20;;;;;;4938147;29;20019;-74
2022/12/11 02:58:54;;;;;;;0.40;0.40;;;16.10;72.20;;;;;;4939228;29;20062;-74
2022/12/11 03:01:20;;;;;;;0.80;0.60;;;16.10;71.20;;;;;;4938203;29;20023;-74
2022/12/11 03:03:46;;;;;;;0.30;0.30;;;16.10;71.20;;;;;;4953632;29;20066;-74
2022/12/11 03:06:14;;;;;;;1.10;0.57;;;16.10;71.20;;;;;;4953631;28;20081;-74
2022/12/11 03:08:39;;;;;;;1.70;0.40;;;16.10;71.20;;;;;;4937646;29;20054;-74
2022/12/11 03:11:09;;;;;;;0.80;0.60;;;16.10;71.20;;;;;;4937864;29;20027;-74
2022/12/11 03:13:35;;;;;;;0.80;0.43;;;16.10;71.40;;;;;;4953621;29;20035;-74
2022/12/11 03:16:11;;;;;;;0.55;0.50;;;16.10;71.40;;;;;;4954939;28;20390;-74
2022/12/11 03:18:56;;;;;;;0.38;0.28;;;16.10;71.40;;;;;;4953672;29;20437;-74
2022/12/11 03:21:26;;;;;;;1.08;0.43;;;16.10;71.50;;;;;;4938469;29;20066;-74
2022/12/11 03:24:01;;;;;;;0.73;0.40;;;16.10;71.40;;;;;;4953434;29;20031;-74
2022/12/11 03:26:27;;;;;;;0.70;0.30;;;16.00;71.40;;;;;;4953619;28;20023;-74
2022/12/11 03:28:58;;;;;;;1.38;0.57;;;16.10;71.50;;;;;;4953457;29;20050;-74
2022/12/11 03:31:42;;;;;;;0.90;0.40;;;16.10;71.50;;;;;;4954788;28;20028;-74
2022/12/11 03:34:15;;;;;;;0.30;0.30;;;16.10;71.50;;;;;;4938231;29;20477;-74
2022/12/11 03:36:40;;;;;;;0.80;0.35;;;16.10;71.50;;;;;;4937975;29;20573;-74
2022/12/11 03:39:08;;;;;;;0.57;0.40;;;16.00;71.50;;;;;;4937353;29;20115;-74
2022/12/11 03:41:34;;;;;;;1.13;0.40;;;16.10;71.50;;;;;;4937802;29;20030;-74
2022/12/11 03:44:00;;;;;;;0.30;0.30;;;16.10;71.40;;;;;;4953230;29;20027;-74
2022/12/11 03:46:32;;;;;;;0.50;0.40;;;16.00;71.40;;;;;;4953378;29;20386;-74
2022/12/11 03:49:00;;;;;;;1.30;0.40;;;16.00;71.40;;;;;;4937832;29;20078;-74
2022/12/11 03:51:26;;;;;;;1.60;0.30;;;16.00;71.50;;;;;;4937423;29;20027;-74
2022/12/11 03:53:51;;;;;;;0.40;0.30;;;16.10;71.40;;;;;;4936930;29;20027;-74
2022/12/11 03:56:17;;;;;;;0.40;0.40;;;16.10;71.40;;;;;;4954360;29;20023;-74
2022/12/11 03:58:42;;;;;;;2.15;0.30;;;16.00;71.40;;;;;;4952917;29;20074;-74
2022/12/11 04:01:09;;;;;;;0.60;0.50;;;16.00;71.40;;;;;;4937288;29;20106;-74
2022/12/11 04:03:35;;;;;;;0.40;0.22;;;16.00;71.40;;;;;;4954234;28;20038;-74
2022/12/11 04:06:00;;;;;;;0.30;0.30;;;16.00;71.40;;;;;;4953956;28;20023;-74
2022/12/11 04:08:26;;;;;;;1.20;0.30;;;16.00;71.30;;;;;;4979131;28;20054;-74
2022/12/11 04:11:33;;;;;;;3.20;0.50;;;16.00;71.40;;;;;;4992665;28;20018;-74
2022/12/11 04:13:38;;;;;;;0.38;0.30;;;16.00;71.50;;;;;;4992717;28;20523;-74
2022/12/11 04:16:03;;;;;;;1.77;0.47;;;16.00;71.40;;;;;;4975371;28;20023;-74
2022/12/11 04:24:15;;;;;;;0.30;0.30;;;16.00;71.50;;;;;;4978296;28;20069;-74
2022/12/11 04:26:44;;;;;;;0.47;0.40;;;16.00;71.50;;;;;;4992739;28;20023;-74
2022/12/11 04:29:10;;;;;;;0.40;0.40;;;16.00;71.40;;;;;;4959225;28;20034;-74
2022/12/11 04:31:35;;;;;;;0.30;0.30;;;16.00;71.40;;;;;;4975238;28;20034;-74
2022/12/11 04:34:01;;;;;;;0.32;0.30;;;16.00;71.50;;;;;;4975081;28;20030;-74
2022/12/11 04:36:27;;;;;;;0.30;0.30;;;16.00;71.40;;;;;;4992609;28;20393;-74
2022/12/11 04:38:52;;;;;;;0.30;0.30;;;16.00;71.40;;;;;;4992570;28;20026;-74
2022/12/11 04:41:18;;;;;;;1.17;0.30;;;16.00;71.30;;;;;;4992710;28;20501;-74
2022/12/11 04:43:44;;;;;;;0.30;0.30;;;16.00;71.30;;;;;;4992691;28;20481;-74
2022/12/11 04:46:14;;;;;;;0.73;0.45;;;16.00;71.30;;;;;;4992451;28;20515;-74
2022/12/11 04:48:39;;;;;;;0.55;0.30;;;16.00;71.40;;;;;;4992516;28;20037;-74
2022/12/11 04:51:05;;;;;;;0.30;0.30;;;16.00;71.30;;;;;;4974880;28;20031;-74
2022/12/11 04:53:31;;;;;;;0.30;0.30;;;16.00;71.30;;;;;;4975244;28;20473;-73
2022/12/11 04:55:57;;;;;;;2.17;0.40;;;16.00;71.30;;;;;;4975022;28;20025;-74
2022/12/11 04:58:23;;;;;;;0.47;0.30;;;16.00;71.30;;;;;;4975168;28;20097;-74
2022/12/11 05:00:48;;;;;;;0.20;0.20;;;16.00;71.30;;;;;;4992317;28;20018;-74
2022/12/11 05:03:14;;;;;;;0.40;0.40;;;16.00;71.40;;;;;;4975441;28;20515;-73
2022/12/11 05:05:40;;;;;;;0.80;0.38;;;16.00;71.40;;;;;;4978326;28;20022;-74
2022/12/11 05:08:05;;;;;;;0.65;0.30;;;16.00;71.40;;;;;;4978117;28;20101;-74
2022/12/11 05:10:31;;;;;;;0.77;0.50;;;16.00;71.40;;;;;;4995959;28;20101;-74
2022/12/11 05:12:57;;;;;;;0.77;0.43;;;16.00;71.40;;;;;;4978283;28;20038;-74
2022/12/11 05:15:22;;;;;;;0.95;0.40;;;16.00;71.50;;;;;;4978460;28;20022;-74
2022/12/11 05:17:48;;;;;;;0.77;0.47;;;16.00;71.40;;;;;;4978389;28;20026;-73
2022/12/11 05:20:14;;;;;;;0.30;0.30;;;16.00;71.40;;;;;;4995428;28;20410;-74
2022/12/11 05:22:39;;;;;;;0.38;0.20;;;16.00;71.40;;;;;;4995583;28;20459;-74
2022/12/11 05:25:05;;;;;;;0.30;0.30;;;16.00;71.50;;;;;;4978203;28;20564;-74
2022/12/11 05:27:31;;;;;;;0.32;0.32;;;16.00;71.40;;;;;;4978016;28;20030;-74
2022/12/11 05:29:58;;;;;;;0.20;0.20;;;16.00;71.40;;;;;;4995410;28;20507;-74
2022/12/11 05:32:23;;;;;;;0.40;0.38;;;15.90;71.30;;;;;;4995703;28;20084;-74
2022/12/11 05:34:49;;;;;;;0.40;0.30;;;15.90;71.40;;;;;;4994890;28;20431;-74
2022/12/11 05:37:15;;;;;;;0.40;0.40;;;16.00;71.40;;;;;;4977930;28;20022;-74
2022/12/11 05:39:40;;;;;;;0.45;0.40;;;15.90;71.30;;;;;;4977986;28;20520;-74
2022/12/11 05:42:06;;;;;;;0.95;0.40;;;15.90;71.40;;;;;;4977959;28;20415;-74
2022/12/11 05:44:32;;;;;;;0.50;0.30;;;15.90;71.40;;;;;;4995332;28;20382;-73
2022/12/11 05:46:58;;;;;;;0.40;0.40;;;15.90;71.30;;;;;;4977905;28;20052;-73
2022/12/11 05:49:24;;;;;;;0.22;0.20;;;15.90;71.30;;;;;;4977645;28;20026;-73
2022/12/11 05:51:49;;;;;;;0.75;0.20;;;15.90;71.30;;;;;;4995095;28;20029;-73
2022/12/11 05:54:15;;;;;;;0.40;0.20;;;15.90;71.40;;;;;;4994937;28;20069;-73
2022/12/11 05:56:41;;;;;;;1.00;0.40;;;15.90;71.40;;;;;;4961459;28;20456;-73
2022/12/11 05:59:07;;;;;;;0.40;0.40;;;15.90;71.40;;;;;;4994771;28;20018;-74
2022/12/11 06:01:34;;;;;;;0.20;0.20;;;15.90;71.40;;;;;;4995050;28;20111;-74
2022/12/11 06:04:00;;;;;;;0.50;0.32;;;15.90;71.40;;;;;;4977154;28;20401;-74
2022/12/11 06:06:26;;;;;;;0.30;0.30;;;15.90;72.40;;;;;;4977245;28;20030;-74
2022/12/11 06:08:53;;;;;;;0.10;0.10;;;15.90;71.40;;;;;;4957992;28;20047;-74
2022/12/11 06:11:19;;;;;;;0.85;0.30;;;15.90;71.40;;;;;;4954902;29;20031;-74
2022/12/11 06:13:44;;;;;;;0.30;0.30;;;15.90;71.40;;;;;;4953587;29;20087;-74
2022/12/11 06:16:10;;;;;;;1.38;0.30;;;15.90;71.40;;;;;;4953736;28;20038;-74
2022/12/11 06:18:37;;;;;;;0.30;0.28;;;15.90;71.20;;;;;;4956222;28;20102;-75
2022/12/11 06:21:11;;;;;;;0.60;0.40;;;15.90;71.10;;;;;;4954701;29;20020;-74
2022/12/11 06:23:37;;;;;;;0.30;0.28;;;15.90;71.10;;;;;;4955481;28;20023;-74
2022/12/11 06:26:03;;;;;;;0.40;0.30;;;15.90;71.10;;;;;;4954713;29;20034;-74
2022/12/11 06:28:28;;;;;;;0.30;0.30;;;15.90;71.10;;;;;;4937467;29;20031;-74
2022/12/11 06:30:57;;;;;;;0.80;0.40;;;15.90;71.20;;;;;;4954120;29;20068;-74
2022/12/11 06:33:23;;;;;;;0.43;0.40;;;15.90;71.20;;;;;;4954109;28;20031;-74
2022/12/11 06:35:49;;;;;;;1.45;0.52;;;15.90;71.20;;;;;;4953339;29;20030;-74
2022/12/11 06:38:14;;;;;;;0.45;0.40;;;15.90;71.20;;;;;;4954321;29;20038;-74
2022/12/11 06:40:40;;;;;;;1.75;0.35;;;15.90;72.30;;;;;;4954593;29;20024;-74
2022/12/11 06:43:05;;;;;;;0.63;0.50;;;15.90;71.40;;;;;;4954811;29;20029;-74
2022/12/11 06:45:31;;;;;;;1.75;0.30;;;15.90;71.50;;;;;;4955417;29;20036;-74
2022/12/11 06:47:57;;;;;;;1.17;0.30;;;15.90;71.40;;;;;;4955138;29;20026;-74
2022/12/11 06:50:23;;;;;;;1.38;0.28;;;15.90;71.60;;;;;;4955413;29;20031;-74
2022/12/11 06:52:48;;;;;;;0.63;0.50;;;15.90;71.40;;;;;;4952906;29;20078;-74
2022/12/11 06:55:14;;;;;;;0.30;0.28;;;15.90;71.40;;;;;;4953390;29;20031;-74
2022/12/11 06:57:40;;;;;;;1.63;0.63;;;15.90;71.50;;;;;;4955007;28;20024;-74
2022/12/11 07:00:06;;;;;;;0.25;0.25;;;15.90;71.50;;;;;;4954787;28;20027;-74
2022/12/11 07:02:32;;;;;;;0.63;0.50;;;15.90;71.60;;;;;;4955131;28;20102;-74
2022/12/11 07:04:57;;;;;;;0.73;0.50;;;15.90;71.50;;;;;;4954933;28;20114;-74
2022/12/11 07:07:23;;;;;;;0.40;0.40;;;15.90;71.50;;;;;;4962540;28;20046;-74
2022/12/11 07:09:49;;;;;;;0.28;0.28;;;15.90;71.50;;;;;;4993810;28;20030;-74
2022/12/11 07:12:15;;;;;;;0.30;0.30;;;15.90;71.50;;;;;;4976150;28;20066;-74
2022/12/11 07:14:41;;;;;;;0.40;0.40;;;15.90;71.50;;;;;;4993124;28;20121;-74
2022/12/11 07:17:07;;;;;;;0.60;0.60;;;15.90;71.50;;;;;;4993464;28;20090;-74
2022/12/11 07:19:33;;;;;;;0.50;0.40;;;15.90;71.50;;;;;;4993675;28;20034;-74
2022/12/11 07:21:58;;;;;;;0.35;0.30;;;15.90;71.50;;;;;;4993513;28;20476;-74
2022/12/11 07:24:24;;;;;;;1.17;0.40;;;15.90;71.50;;;;;;4993416;28;20105;-74
2022/12/11 07:26:50;;;;;;;0.63;0.30;;;15.90;71.50;;;;;;4993112;28;20102;-74
2022/12/11 07:29:16;;;;;;;0.52;0.30;;;15.90;71.60;;;;;;4975681;28;20027;-74
2022/12/11 07:31:41;;;;;;;0.55;0.43;;;15.90;71.60;;;;;;4993325;28;20022;-74
2022/12/11 07:34:07;;;;;;;0.35;0.32;;;15.90;71.60;;;;;;4993198;28;20050;-73
2022/12/11 07:36:33;;;;;;;1.95;0.40;;;15.90;71.60;;;;;;4993348;28;20018;-73
2022/12/11 07:38:59;;;;;;;0.30;0.20;;;15.90;71.50;;;;;;4976001;28;20023;-73
2022/12/11 07:41:27;;;;;;;0.30;0.20;;;15.90;71.60;;;;;;4975958;28;20033;-74
2022/12/11 07:43:53;;;;;;;0.30;0.30;;;15.90;71.60;;;;;;4975956;28;20033;-73
2022/12/11 07:46:20;;;;;;;2.90;0.40;;;15.90;71.70;;;;;;4992979;28;20097;-73
2022/12/11 07:48:47;;;;;;;0.75;0.40;;;15.90;71.70;;;;;;4975806;28;20291;-73
2022/12/11 07:51:26;;;;;;;1.80;0.38;;;15.90;71.70;;;;;;4975773;28;20022;-73
2022/12/11 07:53:53;;;;;;;1.88;0.35;;;15.90;71.70;;;;;;4976553;28;20034;-73
2022/12/11 07:56:18;;;;;;;0.40;0.40;;;15.90;71.70;;;;;;4975504;28;20105;-73
2022/12/11 07:58:44;;;;;;;0.25;0.25;;;15.90;71.70;;;;;;4975371;28;20160;-73
2022/12/11 08:01:15;;;;;;;1.33;0.40;;;15.90;71.70;;;;;;4975568;28;20018;-73
2022/12/11 08:03:41;;;;;;;3.05;0.40;;;15.80;71.60;;;;;;4976605;28;20033;-73
2022/12/11 08:06:07;;;;;;;0.30;0.30;;;15.90;71.70;;;;;;4992581;28;20031;-73
2022/12/11 08:08:32;;;;;;;0.52;0.32;;;15.90;71.80;;;;;;4992674;28;20521;-73
2022/12/11 08:11:05;;;;;;;2.20;0.43;;;15.90;71.60;;;;;;4975560;28;20034;-73
2022/12/11 08:13:31;;;;;;;0.30;0.30;;;15.90;71.60;;;;;;4975395;28;20030;-73
2022/12/11 08:15:56;;;;;;;0.85;0.40;;;15.90;71.70;;;;;;4975655;28;20035;-73
2022/12/11 08:18:23;;;;;;;0.20;0.20;;;15.80;71.70;;;;;;4992740;28;20444;-73
2022/12/11 08:20:49;;;;;;;0.30;0.20;;;15.90;71.80;;;;;;4975365;28;20019;-73
2022/12/11 08:23:14;;;;;;;0.43;0.30;;;15.80;71.70;;;;;;4992595;28;20061;-73
2022/12/11 08:25:40;;;;;;;0.50;0.50;;;15.80;71.70;;;;;;4975571;28;20018;-73
2022/12/11 08:28:06;;;;;;;1.33;0.45;;;15.80;71.80;;;;;;4992441;28;20027;-73
2022/12/11 08:30:31;;;;;;;0.20;0.20;;;15.90;71.80;;;;;;4992745;28;20033;-73
2022/12/11 08:32:58;;;;;;;0.30;0.30;;;15.80;71.70;;;;;;4992582;28;20026;-73
2022/12/11 08:35:24;;;;;;;0.35;0.35;;;15.80;71.70;;;;;;4975353;28;20077;-74
2022/12/11 08:37:50;;;;;;;0.45;0.45;;;15.80;71.80;;;;;;4975465;28;20101;-73
2022/12/11 08:40:16;;;;;;;1.23;0.88;;;15.80;71.80;;;;;;4994657;28;20109;-74
2022/12/11 08:42:41;;;;;;;0.50;0.50;;;15.90;71.70;;;;;;4995939;28;20054;-74
2022/12/11 08:45:08;;;;;;;0.60;0.60;;;15.80;69.50;;;;;;4996160;28;20103;-74
2022/12/11 08:47:42;;;;;;;0.85;0.60;;;15.80;68.70;;;;;;4993618;28;20045;-74
2022/12/11 08:50:08;;;;;;;0.57;0.57;;;15.80;67.90;;;;;;4996005;28;20030;-75
2022/12/11 08:52:34;;;;;;;1.25;0.60;;;15.80;67.90;;;;;;4996167;28;20113;-77
2022/12/11 08:55:00;;;;;;;0.60;0.60;;;15.80;67.70;;;;;;4978740;28;20105;-75
2022/12/11 08:57:27;;;;;;;0.93;0.70;;;15.80;67.50;;;;;;4978472;28;20023;-77
2022/12/11 08:59:52;;;;;;;0.77;0.77;;;15.80;67.10;;;;;;4978926;28;20530;-76
2022/12/11 09:02:18;;;;;;;0.60;0.60;;;15.70;67.20;;;;;;4995916;28;20034;-76
2022/12/11 09:04:44;;;;;;;0.95;0.70;;;15.80;67.30;;;;;;4978686;28;20145;-76
2022/12/11 09:07:09;;;;;;;2.30;0.65;;;15.70;67.10;;;;;;4995496;28;20061;-75
2022/12/11 09:09:35;;;;;;;0.88;0.70;;;15.80;67.10;;;;;;4995925;28;20038;-75
2022/12/11 09:12:03;;;;;;;0.70;0.70;;;15.70;67.00;;;;;;4978326;28;20066;-75
2022/12/11 09:14:29;;;;;;;0.70;0.70;;;15.70;67.00;;;;;;4995902;28;20156;-75
2022/12/11 09:16:54;;;;;;;0.73;0.73;;;15.70;67.00;;;;;;4995690;28;20122;-75
2022/12/11 09:19:20;;;;;;;1.58;0.70;;;15.70;67.20;;;;;;4995495;28;20026;-75
2022/12/11 09:21:46;;;;;;;0.88;0.70;;;15.70;67.00;;;;;;4995656;28;20099;-75
2022/12/11 09:24:12;;;;;;;0.70;0.70;;;15.70;67.10;;;;;;4995523;28;20101;-75
2022/12/11 09:26:38;;;;;;;0.60;0.60;;;15.70;67.20;;;;;;4977891;28;20030;-75
2022/12/11 09:29:04;;;;;;;1.20;0.70;;;15.70;67.30;;;;;;4995782;28;20024;-75
2022/12/11 09:31:31;;;;;;;1.33;0.80;;;15.70;67.40;;;;;;4995368;28;20026;-75
2022/12/11 09:33:59;;;;;;;0.70;0.70;;;15.70;67.40;;;;;;4978147;28;20092;-75
2022/12/11 09:36:25;;;;;;;0.93;0.68;;;15.70;67.50;;;;;;4978051;28;20018;-75
2022/12/11 09:38:51;;;;;;;2.05;1.52;;;15.70;67.50;;;;;;4978014;28;20077;-75
2022/12/11 09:41:19;;;;;;;1.63;1.52;;;15.70;67.40;;;;;;4977671;28;20499;-75
2022/12/11 09:43:45;;;;;;;1.75;1.65;;;15.70;67.60;;;;;;4995438;28;20037;-75
2022/12/11 09:46:12;;;;;;;3.92;1.92;;;15.70;67.70;;;;;;4977894;28;20093;-74
2022/12/11 09:48:48;;;;;;;6.15;1.80;;;15.70;67.80;;;;;;4977848;28;20117;-75
2022/12/11 09:51:25;;;;;;;5.43;1.70;;;15.70;68.00;;;;;;4977682;28;20507;-75
2022/12/11 09:53:51;;;;;;;1.70;1.60;;;15.70;68.90;;;;;;4977725;28;20105;-75
2022/12/11 09:56:23;;;;;;;3.80;1.95;;;15.70;68.00;;;;;;4977499;28;20125;-75
2022/12/11 09:59:04;;;;;;;2.95;2.25;;;15.70;67.90;;;;;;4977805;28;20029;-75
2022/12/11 10:01:36;;;;;;;1.95;1.73;;;15.70;67.90;;;;;;4978801;28;20050;-75
2022/12/11 10:04:15;;;;;;;2.65;1.60;;;15.70;67.90;;;;;;4977630;28;20026;-75
2022/12/11 10:06:48;;;;;;;1.90;1.80;;;15.70;68.00;;;;;;4977206;28;20136;-75
2022/12/11 10:09:32;;;;;;;2.10;2.00;;;15.70;67.90;;;;;;4978244;28;20089;-75
2022/12/11 10:12:01;;;;;;;2.15;1.98;;;15.70;68.00;;;;;;4994637;28;20041;-74
2022/12/11 10:14:42;;;;;;;2.00;1.90;;;15.70;68.00;;;;;;4975786;28;20053;-74
2022/12/11 10:17:18;;;;;;;1.77;1.67;;;15.70;68.00;;;;;;4993196;28;20018;-74
2022/12/11 10:19:44;;;;;;;2.15;1.88;;;15.70;68.00;;;;;;4975729;28;20022;-74
2022/12/11 10:22:21;;;;;;;2.30;2.10;;;15.70;68.10;;;;;;4975625;28;20023;-74
2022/12/11 10:25:06;;;;;;;2.00;1.90;;;15.60;68.00;;;;;;4945664;28;20393;-75
2022/12/11 10:27:37;;;;;;;3.55;1.77;;;15.70;68.00;;;;;;4977790;28;20026;-74
2022/12/11 10:30:25;;;;;;;2.53;1.70;;;15.70;68.00;;;;;;4961426;28;20019;-75
2022/12/11 10:33:03;;;;;;;2.17;1.55;;;15.70;68.00;;;;;;4945779;28;20449;-74
2022/12/11 10:35:35;;;;;;;10.90;2.90;;;15.70;68.10;;;;;;4977352;28;20096;-74
2022/12/11 10:38:31;;;;;;;12.60;3.17;;;15.70;68.50;;;;;;4994065;28;20030;-74
2022/12/11 10:41:05;;;;;;;9.80;2.72;;;15.70;68.60;;;;;;4964937;28;20065;-74
2022/12/11 10:43:38;;;;;;;7.13;3.00;;;15.70;68.60;;;;;;4976859;28;20022;-74
2022/12/11 10:46:05;;;;;;;10.52;3.03;;;15.70;68.60;;;;;;4994103;28;20023;-74
2022/12/11 10:48:31;;;;;;;9.35;2.92;;;15.70;68.70;;;;;;4977014;28;20030;-74
2022/12/11 10:51:04;;;;;;;9.18;3.13;;;15.70;68.80;;;;;;4976684;28;20046;-75
2022/12/11 10:53:30;;;;;;;7.32;2.90;;;15.70;69.00;;;;;;4960548;28;20030;-74
2022/12/11 10:55:57;;;;;;;8.93;2.92;;;15.70;69.00;;;;;;4960798;28;20433;-74
2022/12/11 10:58:24;;;;;;;9.35;2.90;;;15.70;69.00;;;;;;4960930;28;20084;-74
2022/12/11 11:01:06;;;;;;;10.93;2.92;;;15.70;69.00;;;;;;4960408;28;20019;-74
2022/12/11 11:03:33;;;;;;;12.02;3.30;;;15.70;68.90;;;;;;4977554;28;20022;-75
2022/12/11 11:06:11;;;;;;;11.48;3.22;;;15.70;69.00;;;;;;4960010;28;20014;-74
2022/12/11 11:08:58;;;;;;;7.35;3.13;;;15.70;68.90;;;;;;4993489;28;20170;-74
2022/12/11 11:11:33;;;;;;;6.82;3.33;;;15.70;68.80;;;;;;4976091;28;20033;-74
2022/12/11 11:14:14;;;;;;;12.30;3.90;;;15.70;68.80;;;;;;4976620;28;20401;-74
2022/12/11 11:16:41;;;;;;;8.55;3.90;;;15.70;69.00;;;;;;4993775;28;20498;-74
2022/12/11 11:19:14;;;;;;;10.48;4.50;;;15.70;69.10;;;;;;4976262;28;20225;-75
2022/12/11 11:21:52;;;;;;;11.50;3.70;;;15.70;69.40;;;;;;4975883;28;20018;-78
2022/12/11 11:24:38;;;;;;;8.60;4.22;;;15.70;69.50;;;;;;4975962;28;20089;-76
2022/12/11 11:27:21;;;;;;;5.35;3.63;;;15.80;69.60;;;;;;4976158;28;20391;-77
2022/12/11 11:29:47;;;;;;;8.18;3.55;;;15.80;69.60;;;;;;4976241;28;20035;-78
2022/12/11 11:32:21;;;;;;;7.38;3.75;;;15.70;69.70;;;;;;4976018;28;20404;-78
2022/12/11 11:34:47;;;;;;;9.60;3.83;;;15.70;69.60;;;;;;4975899;28;20093;-78
2022/12/11 11:37:32;;;;;;;6.93;3.33;;;15.70;69.70;;;;;;4993091;28;20489;-77
2022/12/11 11:40:03;;;;;;;6.22;3.30;;;15.70;69.50;;;;;;4975811;28;20042;-76
2022/12/11 11:42:46;;;;;;;9.07;3.78;;;15.70;69.60;;;;;;4975937;28;20021;-76
2022/12/11 11:45:19;;;;;;;7.50;3.55;;;15.70;69.50;;;;;;4976849;28;20378;-76
2022/12/11 11:47:53;;;;;;;8.55;3.10;;;15.80;69.50;;;;;;4975889;28;20105;-76
2022/12/11 11:50:24;;;;;;;7.38;3.10;;;15.80;69.50;;;;;;4975441;28;20397;-76
2022/12/11 11:53:06;;;;;;;9.07;3.30;;;15.80;69.50;;;;;;4976802;28;20030;-77
2022/12/11 11:55:36;;;;;;;6.97;3.20;;;15.70;69.40;;;;;;4960071;28;20030;-76
2022/12/11 11:58:14;;;;;;;6.30;3.40;;;15.70;69.30;;;;;;4975884;28;20319;-76
2022/12/11 12:00:40;;;;;;;5.13;3.20;;;15.70;69.30;;;;;;4975564;28;20019;-77
2022/12/11 12:03:17;;;;;;;6.18;3.10;;;15.80;69.30;;;;;;4959768;28;20029;-75
2022/12/11 12:06:04;;;;;;;3.50;3.10;;;15.80;69.20;;;;;;4960242;28;20046;-78
2022/12/11 12:08:38;;;;;;;8.68;3.53;;;15.80;69.20;;;;;;4992677;28;20435;-77
2022/12/11 12:11:22;;;;;;;6.28;2.65;;;15.70;69.00;;;;;;4993075;28;20473;-74
2022/12/11 12:14:13;;;;;;;4.95;2.75;;;15.70;69.00;;;;;;4995624;28;20427;-75
2022/12/11 12:16:45;;;;;;;6.13;2.83;;;15.70;69.00;;;;;;4996803;28;20093;-76
2022/12/11 12:19:26;;;;;;;3.30;2.53;;;15.80;69.00;;;;;;4979640;28;20022;-77
2022/12/11 12:21:54;;;;;;;2.85;2.47;;;15.80;69.00;;;;;;4996579;28;20058;-76
2022/12/11 12:24:42;;;;;;;4.80;2.92;;;15.80;68.90;;;;;;4996617;28;20493;-76
2022/12/11 12:27:14;;;;;;;4.13;2.30;;;15.80;68.90;;;;;;4979475;28;20026;-77
2022/12/11 12:30:01;;;;;;;5.22;2.47;;;15.80;68.90;;;;;;4996462;28;20037;-76
2022/12/11 12:33:09;;;;;;;5.38;2.38;;;15.80;68.90;;;;;;4979416;28;20037;-75
2022/12/11 12:35:36;;;;;;;3.75;2.72;;;15.80;68.90;;;;;;4995860;28;20109;-76
2022/12/11 12:38:05;;;;;;;3.63;2.50;;;15.80;68.90;;;;;;4996475;28;20021;-77
2022/12/11 12:41:13;;;;;;;4.97;2.80;;;15.90;68.90;;;;;;4979098;28;20029;-76
2022/12/11 12:44:04;;;;;;;7.10;2.78;;;15.90;68.90;;;;;;4986657;28;20042;-77
2022/12/11 12:46:48;;;;;;;3.95;2.72;;;15.90;69.00;;;;;;4980077;28;20042;-76
2022/12/11 12:49:40;;;;;;;4.70;3.13;;;15.90;69.00;;;;;;4980932;28;20022;-75
2022/12/11 12:52:13;;;;;;;4.80;3.10;;;15.90;70.00;;;;;;4978961;28;20026;-76
2022/12/11 12:54:39;;;;;;;4.60;2.50;;;15.90;69.00;;;;;;4978709;28;20511;-76
2022/12/11 12:57:05;;;;;;;3.67;2.63;;;15.90;69.00;;;;;;4978888;28;20022;-76
2022/12/11 12:59:31;;;;;;;6.60;2.88;;;15.90;68.90;;;;;;4978729;28;20500;-76
2022/12/11 13:01:58;;;;;;;4.25;2.70;;;15.90;68.90;;;;;;4996017;28;20519;-76
2022/12/11 13:04:35;;;;;;;3.00;2.70;;;15.90;68.80;;;;;;4978541;28;20076;-77
2022/12/11 13:07:14;;;;;;;3.25;2.50;;;16.00;68.90;;;;;;4978241;28;20033;-77